Latest Weather Observations for Tunnack

IDT60801

Issued at 9:11 pm EDT Thursday 21 February 2019 (issued every 10 minutes, with the page automatically refreshed every 10 minutes)

About weather observations | Map of weather stations | Latest weather observations for TAS | Other Formats
Station Details ID: 094195 Name: TUNNACK FIRE STATION Lat: -42.45 Lon: 147.46 Height: 461.5 m
Data from the previous 72 hours. | See also: Recent months at Tunnack
Date/Time
EDT
Temp
°C
App
Temp
°C
Dew
Point
°C
Rel
Hum
%
Delta-T
°C
Wind Press
QNH
hPa
Press
MSL
hPa
Rain since
9am
mm
Dir  Spd
km/h
Gust
km/h
Spd
kts
Gust
kts
21/09:00pm 11.5 8.5 5.8 68 2.7 WSW 11 17 6 9 1019.4 1018.5 0.0
21/08:30pm 11.7 8.3 6.0 68 2.7 WSW 13 20 7 11 1019.0 1018.2 0.0
21/08:00pm 12.4 9.0 5.8 64 3.2 W 13 22 7 12 1018.6 1017.8 0.0
21/07:30pm 13.2 9.1 6.3 63 3.4 W 17 24 9 13 1018.3 1017.5 0.0
21/07:00pm 13.5 10.4 7.1 65 3.2 W 13 24 7 13 1017.9 1017.0 0.0
21/06:30pm 13.7 9.7 6.8 63 3.4 WSW 17 30 9 16 1017.5 1016.6 0.0
21/06:00pm 13.5 8.9 8.1 70 2.7 WSW 22 33 12 18 1017.2 1016.3 0.0
21/05:30pm 14.7 9.8 6.8 59 3.9 W 22 32 12 17 1016.6 1015.8 0.0
21/05:00pm 17.2 11.6 7.0 51 5.2 WSW 26 41 14 22 1016.3 1015.5 0.0
21/04:30pm 17.3 11.9 6.5 49 5.5 WSW 24 35 13 19 1016.0 1015.1 0.0
21/04:00pm 16.5 10.8 6.6 52 5.0 WSW 26 43 14 23 1015.9 1015.0 0.0
21/03:30pm 16.1 9.6 6.5 53 4.8 WSW 30 48 16 26 1015.8 1014.9 0.0
21/03:23pm 15.9 9.6 5.8 51 5.0 WSW 28 48 15 26 1015.7 1014.8 0.0
21/03:00pm 17.2 11.5 6.7 50 5.3 WSW 26 41 14 22 1015.6 1014.7 0.0
21/02:30pm 17.5 10.9 6.1 47 5.7 W 30 48 16 26 1015.4 1014.5 0.0
21/02:21pm 16.7 10.5 6.2 50 5.3 W 28 48 15 26 1015.5 1014.6 0.0
21/02:00pm 16.2 11.1 7.7 57 4.4 W 24 35 13 19 1015.6 1014.7 0.0
21/01:30pm 14.8 9.9 8.5 66 3.3 WSW 24 39 13 21 1015.5 1014.6 0.0
21/01:00pm 15.0 8.9 6.6 57 4.2 W 28 54 15 29 1014.8 1013.9 0.0
21/12:49pm 15.7 9.1 6.2 53 4.7 W 30 48 16 26 1014.7 1013.8 0.0
21/12:30pm 17.6 11.2 6.8 49 5.5 W 30 46 16 25 1014.3 1013.5 0.0
21/12:00pm 16.2 9.3 6.3 52 4.9 W 32 54 17 29 1014.1 1013.2 0.0
21/11:30am 16.2 9.7 6.6 53 4.8 WNW 30 50 16 27 1013.8 1012.9 0.0
21/11:00am 15.3 8.1 6.1 54 4.5 WNW 33 56 18 30 1013.9 1013.0 0.0
21/10:43am 14.3 7.2 5.4 55 4.3 WNW 32 50 17 27 1013.7 1012.8 0.0
21/10:30am 14.0 6.4 5.9 58 4.0 WNW 35 50 19 27 1013.7 1012.8 0.0
21/10:00am 13.9 6.8 5.5 57 4.1 W 32 56 17 30 1013.3 1012.4 0.0
21/09:49am 13.7 7.4 5.6 58 3.9 WNW 28 48 15 26 1013.3 1012.4 0.0
21/09:30am 12.1 6.0 5.0 62 3.3 WNW 26 43 14 23 1013.3 1012.4 0.0
21/09:19am 12.0 5.3 5.4 64 3.1 NW 30 48 16 26 1013.2 1012.3 0.0
21/09:00am 11.1 3.9 4.8 65 2.9 NW 32 48 17 26 1013.0 1012.1 0.0
21/08:34am 11.0 4.5 4.7 65 2.9 WNW 28 46 15 25 1012.7 1011.8 0.0
21/08:30am 10.2 3.2 4.1 66 2.8 WNW 30 41 16 22 1012.7 1011.8 0.0
21/08:00am 10.4 3.7 3.9 64 3.0 WNW 28 39 15 21 1012.3 1011.4 0.0
21/07:30am 9.7 3.8 3.9 67 2.6 WNW 24 32 13 17 1012.0 1011.1 0.0
21/07:00am 8.4 1.7 3.5 71 2.2 WNW 28 33 15 18 1011.8 1010.9 0.0
21/06:30am 8.4 2.9 3.8 73 2.0 WNW 22 32 12 17 1011.9 1011.0 0.0
21/06:00am 7.8 1.9 3.8 76 1.8 WNW 24 33 13 18 1011.7 1010.8 0.0
21/05:30am 7.4 1.8 3.3 75 1.8 WNW 22 30 12 16 1011.5 1010.6 0.0
21/05:00am 7.6 1.9 3.1 73 2.0 WNW 22 28 12 15 1011.3 1010.4 0.0
21/04:30am 7.9 1.8 2.8 70 2.2 WNW 24 32 13 17 1011.2 1010.3 0.0
21/04:00am 7.8 3.1 2.9 71 2.1 WNW 17 28 9 15 1011.2 1010.3 0.0
21/03:30am 7.9 2.6 2.8 70 2.2 WNW 20 33 11 18 1011.3 1010.4 0.0
21/03:00am 8.2 2.8 2.7 68 2.4 WNW 20 35 11 19 1011.1 1010.2 0.0
21/02:30am 9.0 2.8 2.1 62 3.0 WNW 24 43 13 23 1011.2 1010.3 0.0
21/02:00am 8.6 2.0 2.2 64 2.8 WNW 26 35 14 19 1011.1 1010.2 0.0
21/01:30am 8.0 1.9 2.5 68 2.4 WNW 24 33 13 18 1011.3 1010.4 0.0
21/01:00am 8.1 2.3 2.4 67 2.5 WNW 22 32 12 17 1011.5 1010.6 0.0
21/12:30am 7.0 2.2 2.5 73 1.9 WNW 17 22 9 12 1011.6 1010.7 0.0
21/12:00am 6.7 3.1 3.0 77 1.6 WNW 11 15 6 8 1011.5 1010.6 0.0
 
Date/Time
EDT
Temp
°C
App
Temp
°C
Dew
Point
°C
Rel
Hum
%
Delta-T
°C
Wind Press
QNH
hPa
Press
MSL
hPa
Rain since
9am
mm
Dir  Spd
km/h
Gust
km/h
Spd
kts
Gust
kts
20/11:30pm 8.1 4.2 3.2 71 2.1 W 13 24 7 13 1011.5 1010.6 0.0
20/11:00pm 7.8 3.5 3.1 72 2.0 WNW 15 24 8 13 1011.6 1010.7 0.0
20/10:30pm 9.5 4.2 3.0 64 2.9 WNW 20 37 11 20 1011.5 1010.6 0.0
20/10:00pm 9.1 4.6 2.4 63 2.9 W 15 20 8 11 1011.4 1010.5 0.0
20/09:30pm 9.5 4.4 3.3 65 2.8 WSW 19 30 10 16 1011.0 1010.1 0.0
20/09:00pm 10.2 5.2 4.8 69 2.5 WSW 20 30 11 16 1010.9 1010.0 0.0
20/08:30pm 11.1 5.2 4.1 62 3.2 W 24 35 13 19 1010.5 1009.5 0.0
20/08:00pm 12.1 5.2 2.3 51 4.4 W 28 43 15 23 1009.7 1008.8 0.0
20/07:30pm 12.5 7.2 2.9 52 4.3 WNW 20 28 11 15 1009.3 1008.4 0.0
20/07:00pm 13.9 8.6 2.8 47 5.1 W 20 32 11 17 1009.3 1008.4 0.0
20/06:30pm 14.8 9.1 3.0 45 5.4 W 22 35 12 19 1009.0 1008.1 0.0
20/06:03pm 16.0 8.3 2.1 39 6.4 WNW 32 50 17 27 1008.6 1007.6 0.0
20/06:00pm 16.0 8.6 1.7 38 6.5 WNW 30 46 16 25 1008.5 1007.5 0.0
20/05:31pm 15.5 8.4 3.6 45 5.6 W 30 48 16 26 1008.2 1007.2 0.0
20/05:30pm 15.4 8.0 3.9 46 5.4 W 32 48 17 26 1008.2 1007.2 0.0
20/05:00pm 15.7 8.7 4.1 46 5.5 W 30 48 16 26 1007.9 1006.9 0.0
20/04:30pm 17.6 11.4 6.2 47 5.7 W 28 50 15 27 1007.5 1006.6 0.0
20/04:03pm 17.2 10.7 6.4 49 5.4 W 30 48 16 26 1006.9 1006.0 0.0
20/04:00pm 17.1 10.2 6.3 49 5.4 W 32 48 17 26 1006.9 1006.0 0.0
20/03:42pm 18.4 12.2 6.3 45 6.1 W 28 46 15 25 1006.7 1005.7 0.0
20/03:30pm 18.9 13.3 7.0 46 6.1 W 26 44 14 24 1006.6 1005.6 0.0
20/03:07pm 20.1 13.3 6.8 42 6.9 WNW 32 50 17 27 1006.5 1005.5 0.0
20/03:00pm 19.0 11.9 6.2 43 6.5 WNW 33 50 18 27 1006.6 1005.6 0.0
20/02:50pm 19.9 14.0 7.3 44 6.6 WNW 28 48 15 26 1006.6 1005.6 0.0
20/02:30pm 18.3 13.8 6.8 47 5.9 W 20 39 11 21 1006.9 1006.0 0.0
20/02:19pm 16.4 10.4 7.1 54 4.7 W 28 46 15 25 1007.0 1006.1 0.0
20/02:00pm 17.7 11.4 7.2 50 5.4 W 30 61 16 33 1006.8 1005.9 0.0
20/01:38pm 19.2 12.7 6.3 43 6.6 WNW 30 50 16 27 1006.5 1005.5 0.0
20/01:30pm 19.3 13.8 6.1 42 6.7 W 24 41 13 22 1006.6 1005.6 0.0
20/01:00pm 18.5 11.9 6.0 44 6.3 W 30 48 16 26 1006.5 1005.5 0.0
20/12:40pm 19.1 13.1 6.9 45 6.3 W 28 50 15 27 1006.5 1005.5 0.0
20/12:30pm 18.6 13.5 7.7 49 5.7 W 24 41 13 22 1006.5 1005.5 0.0
20/12:00pm 16.5 11.7 7.2 54 4.8 W 22 43 12 23 1006.9 1006.0 0.0
20/11:30am 17.0 10.1 7.1 52 5.1 WNW 33 52 18 28 1007.0 1006.1 0.0
20/11:03am 15.9 9.9 6.9 55 4.5 WNW 28 46 15 25 1007.2 1006.3 0.0
20/11:00am 15.6 9.1 6.6 55 4.5 WNW 30 44 16 24 1007.2 1006.3 0.0
20/10:30am 16.6 8.4 6.4 51 5.1 WNW 39 57 21 31 1007.1 1006.2 0.0
20/10:20am 17.3 9.8 6.5 49 5.5 WNW 35 54 19 29 1006.9 1006.0 0.0
20/10:00am 16.0 7.3 6.2 52 4.9 NW 41 56 22 30 1006.8 1005.9 0.0
20/09:49am 15.4 10.0 6.4 55 4.5 NW 24 50 13 27 1007.0 1006.1 0.0
20/09:30am 12.4 8.3 6.0 65 3.1 NNW 17 24 9 13 1007.2 1006.3 0.0
20/09:00am 11.3 6.4 5.2 66 2.9 N 20 26 11 14 1007.3 1006.4 0.0
20/08:30am 9.3 6.5 5.1 75 1.9 NNE 9 13 5 7 1007.4 1006.5 0.0
20/08:00am 9.0 5.4 4.8 75 1.9 NNE 13 20 7 11 1007.4 1006.5 0.0
20/07:30am 9.7 6.4 4.3 69 2.5 NNE 11 13 6 7 1007.4 1006.5 0.0
20/07:00am 8.7 4.5 3.7 71 2.2 NNW 15 20 8 11 1007.2 1006.3 0.0
20/06:30am 9.2 4.2 3.6 68 2.5 NNW 19 26 10 14 1007.3 1006.4 0.0
20/06:00am 9.4 4.8 3.8 68 2.5 NW 17 24 9 13 1007.6 1006.7 0.0
20/05:30am 7.9 2.7 3.8 75 1.8 WNW 20 30 11 16 1007.6 1006.7 0.0
20/05:00am 7.8 2.6 3.7 75 1.8 WNW 20 28 11 15 1007.6 1006.7 0.0
20/04:30am 8.3 3.1 3.6 72 2.1 WNW 20 28 11 15 1007.9 1006.9 0.0
20/04:00am 7.8 3.2 3.5 74 1.9 NW 17 22 9 12 1008.2 1007.2 0.0
20/03:30am 5.8 3.2 4.0 88 0.8 NW 7 15 4 8 1008.6 1007.6 0.0
20/03:00am 4.9 2.2 2.9 87 0.8 ENE 6 11 3 6 1008.7 1007.8 0.0
20/02:30am 5.8 3.1 3.6 86 1.0 NW 7 9 4 5 1008.9 1008.0 0.0
20/02:00am 5.7 3.8 2.9 82 1.2 NNW 2 7 1 4 1009.2 1008.3 0.0
20/01:30am 7.8 5.4 5.1 83 1.2 N 7 11 4 6 1009.4 1008.5 0.0
20/01:00am 5.8 3.1 3.8 87 0.9 E 7 9 4 5 1009.8 1008.9 0.0
20/12:30am 6.1 3.6 3.9 86 1.0 N 6 7 3 4 1010.2 1009.2 0.0
20/12:00am 7.0 4.5 4.5 84 1.1 N 7 9 4 5 1010.3 1009.3 0.0
 
Date/Time
EDT
Temp
°C
App
Temp
°C
Dew
Point
°C
Rel
Hum
%
Delta-T
°C
Wind Press
QNH
hPa
Press
MSL
hPa
Rain since
9am
mm
Dir  Spd
km/h
Gust
km/h
Spd
kts
Gust
kts
19/11:30pm 7.7 5.8 4.8 82 1.3 WNW 4 7 2 4 1010.3 1009.3 0.0
19/11:00pm 8.4 6.9 4.8 78 1.6 WSW 2 6 1 3 1010.4 1009.4 0.0
19/10:30pm 9.3 6.1 5.1 75 1.9 WSW 11 17 6 9 1010.7 1009.8 0.0
19/10:00pm 9.3 6.7 4.3 71 2.3 W 7 15 4 8 1010.7 1009.8 0.0
19/09:30pm 10.0 7.1 4.4 68 2.6 WSW 9 15 5 8 1010.3 1009.3 0.0
19/09:00pm 10.7 7.4 4.8 67 2.7 WSW 11 15 6 8 1009.8 1008.9 0.0
19/08:30pm 11.1 7.5 5.2 67 2.8 W 13 28 7 15 1009.5 1008.6 0.0
19/08:00pm 11.6 8.3 4.6 62 3.3 WSW 11 17 6 9 1009.1 1008.2 0.0
19/07:30pm 12.4 8.7 4.4 58 3.7 W 13 20 7 11 1009.0 1008.1 0.0
19/07:00pm 13.6 8.7 4.2 53 4.4 W 19 28 10 15 1008.8 1007.9 0.0
19/06:30pm 14.3 9.4 4.3 51 4.7 W 19 30 10 16 1008.5 1007.5 0.0
19/06:00pm 15.4 10.6 4.5 48 5.2 W 19 35 10 19 1008.3 1007.3 0.0
19/05:30pm 15.6 10.0 3.7 45 5.6 W 22 44 12 24 1008.2 1007.2 0.0
19/05:00pm 17.4 11.4 3.3 39 6.7 W 24 43 13 23 1008.1 1007.1 0.0
19/04:31pm 15.8 8.9 2.6 41 6.1 W 28 46 15 25 1007.5 1006.6 0.0
19/04:30pm 15.7 9.2 2.5 41 6.1 W 26 46 14 25 1007.5 1006.6 0.0
19/04:11pm 16.2 8.6 2.6 40 6.3 W 32 50 17 27 1007.3 1006.4 0.0
19/04:00pm 16.0 9.6 3.1 42 6.0 W 26 39 14 21 1007.4 1006.5 0.0
19/03:30pm 16.9 9.6 2.5 38 6.7 WNW 30 44 16 24 1007.4 1006.5 0.0
19/03:00pm 17.0 10.8 2.2 37 6.9 W 24 39 13 21 1007.6 1006.7 0.0
19/02:30pm 17.3 11.2 2.5 37 6.9 W 24 39 13 21 1007.4 1006.5 0.0
19/02:00pm 15.9 8.3 3.0 42 6.0 W 32 54 17 29 1007.3 1006.4 0.0
19/01:36pm 16.6 9.6 4.3 44 5.9 WSW 30 48 16 26 1006.9 1006.0 0.0
19/01:30pm 16.0 9.6 3.4 43 5.9 WSW 26 46 14 25 1006.5 1005.5 0.0
19/01:00pm 15.8 8.0 2.9 42 6.0 W 33 56 18 30 1006.5 1005.5 0.0
19/12:30pm 15.6 8.5 3.7 45 5.6 WSW 30 56 16 30 1006.7 1005.7 0.0
19/12:00pm 15.4 6.7 1.9 40 6.1 W 37 59 20 32 1006.5 1005.5 0.0
19/11:30am 15.4 7.6 2.6 42 5.9 WSW 33 59 18 32 1006.3 1005.3 0.0
19/11:00am 13.6 4.8 1.6 44 5.3 W 37 59 20 32 1006.5 1005.5 0.0
19/10:30am 13.2 5.9 2.4 48 4.9 W 30 57 16 31 1006.0 1005.0 0.0
19/10:00am 13.6 5.6 3.9 52 4.5 W 35 56 19 30 1005.4 1004.5 0.0
19/09:30am 12.7 5.2 3.6 54 4.2 W 32 54 17 29 1005.1 1004.2 0.0
19/09:00am 11.5 3.7 3.0 56 3.8 W 33 59 18 32 1004.9 1004.0 0.0
19/08:30am 10.8 4.1 3.4 60 3.3 W 28 50 15 27 1004.9 1004.0 0.0
19/08:29am 10.7 3.9 3.3 60 3.3 W 28 50 15 27 1004.8 1003.8 0.0
19/08:00am 10.5 3.7 3.3 61 3.2 WNW 28 43 15 23 1004.7 1003.7 0.0
19/07:30am 9.5 4.8 3.0 64 2.9 W 17 26 9 14 1004.7 1003.7 0.0
19/07:00am 8.3 3.0 2.8 68 2.4 WNW 20 33 11 18 1004.5 1003.5 0.0
19/06:30am 8.7 3.9 2.5 65 2.7 W 17 32 9 17 1004.4 1003.4 0.0
19/06:00am 8.3 2.5 2.3 66 2.6 W 22 41 12 22 1004.3 1003.3 0.0
19/05:30am 7.8 3.7 2.5 69 2.3 W 13 20 7 11 1004.0 1003.0 0.0
19/05:00am 8.0 4.0 2.7 69 2.3 WNW 13 24 7 13 1004.1 1003.1 0.0
19/04:30am 7.7 2.9 2.4 69 2.3 WNW 17 22 9 12 1004.1 1003.1 0.0
19/04:00am 7.8 2.4 2.3 68 2.4 W 20 30 11 16 1004.1 1003.1 0.0
19/03:30am 7.4 2.3 2.9 73 1.9 W 19 26 10 14 1004.2 1003.2 0.0
19/03:00am 7.7 1.6 2.8 71 2.1 WNW 24 35 13 19 1004.2 1003.2 0.0
19/02:30am 7.8 2.5 2.9 71 2.1 WNW 20 32 11 17 1004.0 1003.0 0.0
19/02:00am 7.8 2.9 2.3 68 2.4 WNW 17 24 9 13 1004.1 1003.1 0.0
19/01:30am 7.6 3.4 1.7 66 2.5 W 13 19 7 10 1004.0 1003.0 0.0
19/01:00am 8.5 3.3 2.5 66 2.6 W 19 39 10 21 1004.1 1003.1 0.0
19/12:30am 9.0 4.3 3.2 67 2.6 W 17 32 9 17 1004.2 1003.2 0.0
19/12:00am 9.0 5.4 3.2 67 2.6 WNW 11 22 6 12 1004.4 1003.4 0.0
 
Date/Time
EDT
Temp
°C
App
Temp
°C
Dew
Point
°C
Rel
Hum
%
Delta-T
°C
Wind Press
QNH
hPa
Press
MSL
hPa
Rain since
9am
mm
Dir  Spd
km/h
Gust
km/h
Spd
kts
Gust
kts
18/11:30pm 8.3 4.7 3.2 70 2.2 SW 11 28 6 15 1004.1 1003.1 0.0
18/11:00pm 8.6 5.1 3.4 70 2.3 W 11 26 6 14 1004.0 1003.0 0.0
18/10:30pm 9.4 3.3 2.7 63 2.9 WNW 24 35 13 19 1004.1 1003.1 0.0
18/10:15pm 9.7 2.8 2.8 62 3.0 WNW 28 46 15 25 1003.8 1002.8 0.0
18/10:00pm 9.7 3.9 4.5 70 2.4 W 24 39 13 21 1003.7 1002.7 0.0
18/09:30pm 10.2 4.6 5.4 72 2.2 WNW 24 39 13 21 1003.4 1002.4 0.0
18/09:16pm 10.5 3.4 5.5 71 2.4 WNW 32 52 17 28 1003.0 1002.1 0.0

Other formats

Comma delimited format used in spreadsheet applications
http://www.bom.gov.au/fwo/IDT60801/IDT60801.94960.axf

JavaScript Object Notation format (JSON) in row-major order
http://www.bom.gov.au/fwo/IDT60801/IDT60801.94960.json

Data quality

Most of these data are generated automatically and are frequently updated. Quality checks on data are not normally performed. It is possible for incorrect values to appear. Refer to information at About Latest Weather Observations and please check the disclaimer before using these data.